This is the latest recevied weather packets stored in our database for station/object DK6GC-10. If no packets are shown the sender has not sent any weather packets the latest 10 day(s).
| Time | Temp. | Humidity | Pressure | Rain* | Wind** | Luminosity | Snow |
|---|---|---|---|---|---|---|---|
| 1777916720 | 17.22° C | 64% | 1014 hPa | - | - | - | - |
| 1777915820 | 17.78° C | 64% | 1014.1 hPa | - | - | - | - |
| 1777914920 | 17.78° C | 66% | 1014.1 hPa | - | - | - | - |
| 1777914020 | 18.33° C | 62% | 1014.1 hPa | - | - | - | - |
| 1777913119 | 18.33° C | 63% | 1014.1 hPa | - | - | - | - |
| 1777912219 | 17.78° C | 68% | 1014.1 hPa | - | - | - | - |
| 1777911319 | 17.78° C | 68% | 1014.1 hPa | - | - | - | - |
| 1777910419 | 17.78° C | 66% | 1014.2 hPa | - | - | - | - |
| 1777909519 | 18.33° C | 64% | 1014.1 hPa | - | - | - | - |
| 1777908618 | 18.89° C | 62% | 1014.1 hPa | - | - | - | - |
| 1777907718 | 20° C | 58% | 1014.1 hPa | - | - | - | - |
| 1777906818 | 20.56° C | 56% | 1014 hPa | - | - | - | - |
| 1777905918 | 20.56° C | 49% | 1014 hPa | - | - | - | - |
| 1777905018 | 20.56° C | 54% | 1014 hPa | - | - | - | - |
| 1777904118 | 21.67° C | 45% | 1014 hPa | - | - | - | - |
| 1777903217 | 21.67° C | 44% | 1014.2 hPa | - | - | - | - |
| 1777902317 | 20.56° C | 50% | 1014.3 hPa | - | - | - | - |
| 1777901417 | 21.11° C | 46% | 1014.3 hPa | - | - | - | - |
| 1777900517 | 21.11° C | 48% | 1014.4 hPa | - | - | - | - |
| 1777899616 | 21.11° C | 45% | 1014.6 hPa | - | - | - | - |
| 1777898716 | 21.67° C | 44% | 1014.7 hPa | - | - | - | - |
| 1777897816 | 22.22° C | 44% | 1014.8 hPa | - | - | - | - |
| 1777896915 | 22.22° C | 41% | 1014.9 hPa | - | - | - | - |
| 1777896020 | 22.22° C | 41% | 1015 hPa | - | - | - | - |
| 1777895120 | 22.78° C | 40% | 1015 hPa | - | - | - | - |
* Rain since midnight (hover to see other rain measurements)
** Current wind speed in m/s (hover to see current wind gust speed)